Time;durP1;ratioP1;P1;durP2;ratioP2;P2;SDS_P1;SDS_P2;PMS_P1;PMS_P2;Temp;Humidity;BMP_temperature;BMP_pressure;BME280_temperature;BME280_humidity;BME280_pressure;Samples;Min_cycle;Max_cycle;Signal;HPM_P1;HPM_P2
2022/12/04 00:00:45;;;;;;;1999.90;999.90;;;4.70;99.90;;;;;;5094747;28;20028;-76
2022/12/04 00:03:11;;;;;;;1999.90;999.90;;;4.80;99.90;;;;;;5070421;28;20048;-76
2022/12/04 00:05:37;;;;;;;1999.90;999.90;;;4.70;99.90;;;;;;5074846;28;20031;-75
2022/12/04 00:08:02;;;;;;;1999.90;999.90;;;4.80;99.90;;;;;;5074464;28;20032;-76
2022/12/04 00:10:28;;;;;;;1999.90;999.90;;;4.80;99.90;;;;;;5078917;28;20475;-74
2022/12/04 00:12:54;;;;;;;1999.90;999.90;;;4.80;99.90;;;;;;5074133;28;20029;-76
2022/12/04 00:15:19;;;;;;;1999.90;999.90;;;4.80;99.90;;;;;;5074301;28;20028;-76
2022/12/04 00:17:48;;;;;;;1999.90;999.90;;;4.80;99.90;;;;;;5074506;28;20025;-75
2022/12/04 00:20:14;;;;;;;1999.90;999.90;;;4.80;99.90;;;;;;5072742;28;20028;-76
2022/12/04 00:22:40;;;;;;;1999.90;999.90;;;4.80;99.90;;;;;;5072854;28;20029;-75
2022/12/04 00:25:05;;;;;;;1999.90;999.90;;;4.80;99.90;;;;;;5074161;28;20025;-77
2022/12/04 00:27:31;;;;;;;1999.90;999.90;;;4.80;99.90;;;;;;5071961;28;20115;-75
2022/12/04 00:30:01;;;;;;;1999.90;999.90;;;4.80;99.90;;;;;;5072399;28;20021;-76
2022/12/04 00:32:29;;;;;;;1999.90;999.90;;;4.80;99.90;;;;;;5073504;28;20403;-75
2022/12/04 00:34:55;;;;;;;1999.90;999.90;;;4.80;99.90;;;;;;5073413;28;20029;-76
2022/12/04 00:37:21;;;;;;;1999.90;999.90;;;4.80;99.90;;;;;;5073935;28;20029;-76
2022/12/04 00:39:46;;;;;;;1999.90;999.90;;;4.80;99.90;;;;;;5072523;28;20094;-76
2022/12/04 00:42:12;;;;;;;1999.90;999.90;;;4.80;99.90;;;;;;5072131;28;20066;-77
2022/12/04 00:44:37;;;;;;;1999.90;999.90;;;4.80;99.90;;;;;;5078647;28;20078;-74
2022/12/04 00:47:03;;;;;;;1999.90;999.90;;;4.80;99.90;;;;;;5093041;28;20486;-76
2022/12/04 00:49:29;;;;;;;1999.90;999.90;;;4.80;99.90;;;;;;5094267;28;20036;-74
2022/12/04 00:51:54;;;;;;;1999.90;999.90;;;4.80;99.90;;;;;;5126657;27;20039;-76
2022/12/04 00:54:20;;;;;;;1999.90;999.90;;;4.80;99.90;;;;;;5095087;28;20037;-74
2022/12/04 00:56:46;;;;;;;1999.90;999.90;;;4.80;99.90;;;;;;5092531;28;20028;-75
2022/12/04 00:59:12;;;;;;;1999.90;999.90;;;4.80;99.90;;;;;;5093979;28;20032;-76
2022/12/04 01:01:38;;;;;;;1999.90;999.90;;;4.70;99.90;;;;;;5085683;28;20024;-75
2022/12/04 01:04:04;;;;;;;1999.90;999.90;;;4.80;99.90;;;;;;5069851;28;20411;-74
2022/12/04 01:06:32;;;;;;;1999.90;999.90;;;4.80;99.90;;;;;;5073686;28;20033;-76
2022/12/04 01:08:59;;;;;;;1999.90;999.90;;;4.80;99.90;;;;;;5073554;28;20017;-76
2022/12/04 01:11:27;;;;;;;1999.90;999.90;;;4.80;99.90;;;;;;5073200;28;20028;-75
2022/12/04 01:13:53;;;;;;;1999.90;999.90;;;4.70;99.90;;;;;;5073223;28;20411;-75
2022/12/04 01:16:26;;;;;;;1999.90;999.90;;;4.70;99.90;;;;;;5071205;28;20040;-76
2022/12/04 01:18:52;;;;;;;1999.90;999.90;;;4.70;99.90;;;;;;5075235;28;20067;-76
2022/12/04 01:21:18;;;;;;;1999.90;999.90;;;4.70;99.90;;;;;;5077012;28;20411;-76
2022/12/04 01:23:44;;;;;;;1999.90;999.90;;;4.70;99.90;;;;;;5073102;28;20017;-75
2022/12/04 01:26:11;;;;;;;1999.90;999.90;;;4.70;99.90;;;;;;5071385;28;20028;-76
2022/12/04 01:28:36;;;;;;;1999.90;999.90;;;4.70;99.90;;;;;;5072215;28;20017;-74
2022/12/04 01:31:07;;;;;;;1999.90;999.90;;;4.70;99.90;;;;;;5071160;28;20036;-76
2022/12/04 01:33:34;;;;;;;1999.90;999.90;;;4.70;99.90;;;;;;5071287;28;20040;-75
2022/12/04 01:36:01;;;;;;;1999.90;999.90;;;4.70;99.90;;;;;;5072372;28;20098;-76
2022/12/04 01:38:27;;;;;;;1999.90;999.90;;;4.70;99.90;;;;;;5072760;28;20020;-75
2022/12/04 01:40:53;;;;;;;1999.90;999.90;;;4.70;99.90;;;;;;5072223;28;20028;-75
2022/12/04 01:43:19;;;;;;;1999.90;999.90;;;4.70;99.90;;;;;;5073120;28;20112;-76
2022/12/04 01:45:53;;;;;;;1999.90;999.90;;;4.80;99.90;;;;;;5088500;28;20047;-76
2022/12/04 01:48:25;;;;;;;1999.90;999.90;;;4.70;99.90;;;;;;5092957;28;20077;-76
2022/12/04 01:50:57;;;;;;;1999.90;999.90;;;4.70;99.90;;;;;;5091647;28;20073;-76
2022/12/04 01:53:23;;;;;;;1999.90;999.90;;;4.70;99.90;;;;;;5091789;28;20079;-75
2022/12/04 01:55:49;;;;;;;1999.90;999.90;;;4.70;99.90;;;;;;5092455;28;20059;-76
2022/12/04 01:58:18;;;;;;;1999.90;999.90;;;4.70;99.90;;;;;;5092727;28;20376;-76
2022/12/04 02:00:44;;;;;;;1999.90;999.90;;;4.70;99.90;;;;;;5092010;28;20036;-77
2022/12/04 02:03:11;;;;;;;1999.90;999.90;;;4.70;99.90;;;;;;5068587;28;20389;-76
2022/12/04 02:05:37;;;;;;;1999.90;999.90;;;4.70;99.90;;;;;;5072414;28;20368;-75
2022/12/04 02:08:04;;;;;;;1999.90;999.90;;;4.70;99.90;;;;;;5078579;28;20025;-74
2022/12/04 02:11:09;;;;;;;1999.90;999.90;;;4.70;99.90;;;;;;5072421;28;20059;-75
2022/12/04 02:13:43;;;;;;;1999.90;999.90;;;4.70;99.90;;;;;;5070186;28;20036;-76
2022/12/04 02:16:18;;;;;;;1999.90;999.90;;;4.70;99.90;;;;;;5072780;28;20027;-76
2022/12/04 02:18:58;;;;;;;1999.90;999.90;;;4.70;99.90;;;;;;5071801;28;20032;-75
2022/12/04 02:21:42;;;;;;;1999.90;999.90;;;4.70;99.90;;;;;;5072572;28;20025;-76
2022/12/04 02:24:07;;;;;;;1999.90;999.90;;;4.60;99.90;;;;;;5070773;28;20050;-75
2022/12/04 02:26:46;;;;;;;1999.90;999.90;;;4.70;99.90;;;;;;5071850;28;20078;-77
2022/12/04 02:29:21;;;;;;;1999.90;999.90;;;4.70;99.90;;;;;;5071220;28;20032;-76
2022/12/04 02:32:18;;;;;;;1999.90;999.90;;;4.70;99.90;;;;;;5069184;28;20424;-76
2022/12/04 02:35:16;;;;;;;1999.90;999.90;;;4.70;99.90;;;;;;5045017;28;20041;-76
2022/12/04 02:37:45;;;;;;;1999.90;999.90;;;4.70;99.90;;;;;;5026957;28;20058;-75
2022/12/04 02:40:20;;;;;;;1999.90;999.90;;;4.70;99.90;;;;;;5071936;28;20442;-76
2022/12/04 02:43:06;;;;;;;1999.90;999.90;;;4.60;99.90;;;;;;5072262;28;20098;-75
2022/12/04 02:45:45;;;;;;;1999.90;999.90;;;4.70;99.90;;;;;;5086096;28;20020;-75
2022/12/04 02:48:16;;;;;;;1999.90;999.90;;;4.60;99.90;;;;;;5092182;28;20530;-78
2022/12/04 02:50:45;;;;;;;1999.90;999.90;;;4.60;99.90;;;;;;5092410;28;20032;-76
2022/12/04 02:53:25;;;;;;;1999.90;999.90;;;4.60;99.90;;;;;;5092268;28;20035;-76
2022/12/04 02:55:58;;;;;;;1999.90;999.90;;;4.60;99.90;;;;;;5090547;28;20057;-75
2022/12/04 02:58:30;;;;;;;1999.90;999.90;;;4.70;99.90;;;;;;5092391;28;20027;-76
2022/12/04 03:00:59;;;;;;;1999.90;999.90;;;4.70;99.90;;;;;;5090822;28;20441;-76
2022/12/04 03:03:27;;;;;;;1999.90;999.90;;;4.70;99.90;;;;;;5061155;28;20112;-75
2022/12/04 03:06:01;;;;;;;1999.90;999.90;;;4.70;99.90;;;;;;5070519;28;20024;-76
2022/12/04 03:08:59;;;;;;;1999.90;999.90;;;4.60;99.90;;;;;;5071743;28;20017;-75
2022/12/04 03:11:27;;;;;;;1999.90;999.90;;;4.60;99.90;;;;;;5051494;28;20040;-74
2022/12/04 03:14:00;;;;;;;1999.90;999.90;;;4.60;99.90;;;;;;5075465;28;20016;-76
2022/12/04 03:16:34;;;;;;;1999.90;999.90;;;4.70;99.90;;;;;;5075439;28;20082;-75
2022/12/04 03:19:06;;;;;;;1999.90;999.90;;;4.60;99.90;;;;;;5075618;28;20027;-75
2022/12/04 03:21:37;;;;;;;1999.90;999.90;;;4.60;99.90;;;;;;5075471;28;20037;-75
2022/12/04 03:24:29;;;;;;;1999.90;999.90;;;4.70;99.90;;;;;;5080010;28;20092;-75
2022/12/04 03:27:27;;;;;;;1999.90;999.90;;;4.70;99.90;;;;;;5074024;28;20028;-76
2022/12/04 03:29:53;;;;;;;1999.90;999.90;;;4.70;99.90;;;;;;5052503;28;20060;-74
2022/12/04 03:32:32;;;;;;;1999.90;999.90;;;4.60;99.90;;;;;;5070338;28;20020;-74
2022/12/04 03:35:03;;;;;;;1999.90;999.90;;;4.70;99.90;;;;;;5074789;28;20491;-75
2022/12/04 03:38:03;;;;;;;1999.90;999.90;;;4.70;99.90;;;;;;5074965;28;20024;-75
2022/12/04 03:40:40;;;;;;;1999.90;999.90;;;4.60;99.90;;;;;;5071192;28;20064;-76
2022/12/04 03:43:19;;;;;;;1999.90;999.90;;;4.60;99.90;;;;;;5075130;28;20392;-76
2022/12/04 03:46:09;;;;;;;1999.90;999.90;;;4.60;99.90;;;;;;5089998;28;20024;-76
2022/12/04 03:48:46;;;;;;;1999.90;999.90;;;4.70;99.90;;;;;;5095088;28;20506;-75
2022/12/04 03:51:20;;;;;;;1999.90;999.90;;;4.70;99.90;;;;;;5095516;28;20115;-76
2022/12/04 03:53:57;;;;;;;1999.90;999.90;;;4.60;99.90;;;;;;5095028;28;20051;-75
2022/12/04 03:56:30;;;;;;;1999.90;999.90;;;4.50;99.90;;;;;;5094765;28;20032;-76
2022/12/04 03:59:02;;;;;;;1999.90;999.90;;;4.70;99.90;;;;;;5095535;28;20417;-75
2022/12/04 04:01:36;;;;;;;1999.90;999.90;;;4.70;99.90;;;;;;5090053;28;20044;-75
2022/12/04 04:04:06;;;;;;;1999.90;999.90;;;4.70;99.90;;;;;;5070841;28;20079;-76
2022/12/04 04:06:38;;;;;;;1999.90;999.90;;;4.70;99.90;;;;;;5074916;28;20507;-75
2022/12/04 04:09:18;;;;;;;1999.90;999.90;;;4.60;99.90;;;;;;5074808;28;20442;-76
2022/12/04 04:12:04;;;;;;;1999.90;999.90;;;4.60;99.90;;;;;;5074508;28;20082;-76
2022/12/04 04:25:59;;;;;;;1999.90;999.90;;;4.50;99.90;;;;;;5074255;28;20399;-76
2022/12/04 04:28:33;;;;;;;1999.90;999.90;;;4.50;99.90;;;;;;5069682;28;20017;-76
2022/12/04 04:31:09;;;;;;;1999.90;999.90;;;4.50;99.90;;;;;;5074119;28;20039;-77
2022/12/04 04:34:01;;;;;;;1999.90;999.90;;;4.50;99.90;;;;;;5074447;28;20104;-75
2022/12/04 04:36:58;;;;;;;1999.90;999.90;;;4.50;99.90;;;;;;5065003;28;20048;-76
2022/12/04 04:39:49;;;;;;;1999.90;999.90;;;4.60;99.90;;;;;;5045166;28;20033;-74
2022/12/04 04:42:49;;;;;;;1999.90;999.90;;;4.60;99.90;;;;;;5073468;28;20032;-75
2022/12/04 04:45:17;;;;;;;1999.90;999.90;;;4.70;99.90;;;;;;5052783;28;20028;-76
2022/12/04 04:47:54;;;;;;;1999.90;999.90;;;4.60;99.90;;;;;;5074176;28;20557;-75
2022/12/04 04:50:21;;;;;;;1999.90;999.90;;;4.60;99.90;;;;;;5073596;28;20554;-76
2022/12/04 04:52:51;;;;;;;1999.90;999.90;;;4.60;99.90;;;;;;5071604;28;20409;-75
2022/12/04 04:55:18;;;;;;;1999.90;999.90;;;4.60;99.90;;;;;;5072170;28;20552;-76
2022/12/04 04:57:44;;;;;;;1999.90;999.90;;;4.70;99.90;;;;;;5073735;28;20029;-76
2022/12/04 05:00:16;;;;;;;1999.90;999.90;;;4.70;99.90;;;;;;5073346;28;20025;-76
2022/12/04 05:02:42;;;;;;;1999.90;999.90;;;4.70;99.90;;;;;;5072167;28;20077;-76
2022/12/04 05:05:08;;;;;;;1999.90;999.90;;;4.60;99.90;;;;;;5073452;28;20094;-76
2022/12/04 05:07:34;;;;;;;1999.90;999.90;;;4.70;99.90;;;;;;5073847;28;20024;-75
2022/12/04 05:10:00;;;;;;;1999.90;999.90;;;4.70;99.90;;;;;;5073023;28;20036;-76
2022/12/04 05:12:26;;;;;;;1999.90;999.90;;;4.70;99.90;;;;;;5072877;28;20033;-76
2022/12/04 05:14:51;;;;;;;1999.90;999.90;;;4.70;99.90;;;;;;5073248;28;20036;-75
2022/12/04 05:17:17;;;;;;;1999.90;999.90;;;4.70;99.90;;;;;;5073451;28;20028;-76
2022/12/04 05:19:57;;;;;;;1999.90;999.90;;;4.60;99.90;;;;;;5072925;28;20081;-75
2022/12/04 05:22:26;;;;;;;1999.90;999.90;;;4.70;99.90;;;;;;5073091;28;20027;-76
2022/12/04 05:24:53;;;;;;;1999.90;999.90;;;4.60;99.90;;;;;;5072613;28;20035;-76
2022/12/04 05:27:22;;;;;;;1999.90;999.90;;;4.60;99.90;;;;;;5072339;28;20020;-76
2022/12/04 05:29:50;;;;;;;1999.90;999.90;;;4.60;99.90;;;;;;5073029;28;20035;-76
2022/12/04 05:32:16;;;;;;;1999.90;999.90;;;4.60;99.90;;;;;;5072942;28;20032;-76
2022/12/04 05:34:41;;;;;;;1999.90;999.90;;;4.60;99.90;;;;;;5072782;28;20035;-76
2022/12/04 05:37:07;;;;;;;1999.90;999.90;;;4.60;99.90;;;;;;5071798;28;20487;-75
2022/12/04 05:39:34;;;;;;;1999.90;999.90;;;4.60;99.90;;;;;;5072380;28;20090;-76
2022/12/04 05:41:59;;;;;;;1999.90;999.90;;;4.60;99.90;;;;;;5072626;28;20020;-76
2022/12/04 05:44:25;;;;;;;1999.90;999.90;;;4.50;99.90;;;;;;5077126;28;20024;-74
2022/12/04 05:46:51;;;;;;;1999.90;999.90;;;4.50;99.90;;;;;;5092850;28;20024;-76
2022/12/04 05:49:16;;;;;;;1999.90;999.90;;;4.50;99.90;;;;;;5092629;28;20110;-76
2022/12/04 05:51:42;;;;;;;1999.90;999.90;;;4.50;99.90;;;;;;5088830;28;20101;-76
2022/12/04 05:54:07;;;;;;;1999.90;999.90;;;4.60;99.90;;;;;;5072975;28;20032;-76
2022/12/04 05:56:33;;;;;;;1999.90;999.90;;;4.60;99.90;;;;;;5072240;28;20032;-75
2022/12/04 05:58:59;;;;;;;1999.90;999.90;;;4.50;99.90;;;;;;5072525;28;20106;-76
2022/12/04 06:01:24;;;;;;;1999.90;999.90;;;4.60;99.90;;;;;;5076721;28;20475;-74
2022/12/04 06:03:50;;;;;;;1999.90;999.90;;;4.50;99.90;;;;;;5070085;28;20124;-75
2022/12/04 06:06:17;;;;;;;1999.90;999.90;;;4.60;99.90;;;;;;5072747;28;20012;-76
2022/12/04 06:08:43;;;;;;;1999.90;999.90;;;4.50;99.90;;;;;;5072398;28;20024;-75
2022/12/04 06:11:11;;;;;;;1999.90;999.90;;;4.50;99.90;;;;;;5072265;28;20027;-76
2022/12/04 06:13:39;;;;;;;1999.90;999.90;;;4.60;99.90;;;;;;5072356;28;20031;-75
2022/12/04 06:16:05;;;;;;;1999.90;999.90;;;4.50;99.90;;;;;;5068780;28;20021;-76
2022/12/04 06:18:30;;;;;;;1999.90;999.90;;;4.50;99.90;;;;;;5072459;28;20024;-75
2022/12/04 06:20:59;;;;;;;1999.90;999.90;;;4.50;99.90;;;;;;5072230;28;20070;-76
2022/12/04 06:23:24;;;;;;;1999.90;999.90;;;4.50;99.90;;;;;;5072368;28;20065;-76
2022/12/04 06:25:50;;;;;;;1999.90;999.90;;;4.50;99.90;;;;;;5071966;28;20551;-76
2022/12/04 06:28:16;;;;;;;1999.90;999.90;;;4.60;99.90;;;;;;5079373;28;20056;-76
2022/12/04 06:30:41;;;;;;;1999.90;999.90;;;4.50;99.90;;;;;;5068954;28;20032;-75
2022/12/04 06:33:07;;;;;;;1999.90;999.90;;;4.60;99.90;;;;;;5072220;28;20032;-76
2022/12/04 06:35:32;;;;;;;1999.90;999.90;;;4.60;99.90;;;;;;5068124;28;20036;-75
2022/12/04 06:37:58;;;;;;;1999.90;999.90;;;4.60;99.90;;;;;;5051127;28;20472;-76
2022/12/04 06:40:24;;;;;;;1999.90;999.90;;;4.60;99.90;;;;;;5051477;28;20022;-76
2022/12/04 06:42:49;;;;;;;1999.90;999.90;;;4.60;99.90;;;;;;5052046;28;20342;-74
2022/12/04 06:45:15;;;;;;;1999.90;999.90;;;4.50;99.90;;;;;;5075070;28;20043;-76
2022/12/04 06:47:41;;;;;;;1999.90;999.90;;;4.50;99.90;;;;;;5095086;28;20024;-76
2022/12/04 06:50:07;;;;;;;1999.90;999.90;;;4.60;99.90;;;;;;5096173;28;20095;-76
2022/12/04 06:52:33;;;;;;;1999.90;999.90;;;4.50;99.90;;;;;;5095196;28;20032;-75
2022/12/04 06:54:59;;;;;;;1999.90;999.90;;;4.50;99.90;;;;;;5095787;28;20043;-76
2022/12/04 06:57:25;;;;;;;1999.90;999.90;;;4.50;99.90;;;;;;5096818;28;20032;-76
2022/12/04 06:59:50;;;;;;;1999.90;999.90;;;4.60;99.90;;;;;;5096204;28;20039;-75
2022/12/04 07:02:16;;;;;;;1999.90;999.90;;;4.60;99.90;;;;;;5089847;28;20100;-76
2022/12/04 07:04:42;;;;;;;1999.90;999.90;;;4.50;99.90;;;;;;5075805;28;20507;-75
2022/12/04 07:07:08;;;;;;;1999.90;999.90;;;4.60;99.90;;;;;;5076130;28;20028;-78
2022/12/04 07:09:34;;;;;;;1999.90;999.90;;;4.60;99.90;;;;;;5075759;28;20016;-75
2022/12/04 07:12:00;;;;;;;1999.90;999.90;;;4.60;99.90;;;;;;5075526;28;20021;-74
2022/12/04 07:14:26;;;;;;;1999.90;999.90;;;4.60;99.90;;;;;;5075094;28;20450;-76
2022/12/04 07:16:51;;;;;;;1999.90;999.90;;;4.60;99.90;;;;;;5074926;28;20504;-76
2022/12/04 07:19:17;;;;;;;1999.90;999.90;;;4.60;99.90;;;;;;5075692;28;20035;-75
2022/12/04 07:21:43;;;;;;;1999.90;999.90;;;4.60;99.90;;;;;;5075599;28;20024;-77
2022/12/04 07:24:14;;;;;;;1999.90;999.90;;;4.60;99.90;;;;;;5075113;28;20076;-76
2022/12/04 07:26:40;;;;;;;1999.90;999.90;;;4.50;99.90;;;;;;5074106;28;20025;-75
2022/12/04 07:29:05;;;;;;;1999.90;999.90;;;4.60;99.90;;;;;;5073061;28;20381;-75
2022/12/04 07:31:31;;;;;;;1999.90;999.90;;;4.50;99.90;;;;;;5073937;28;20047;-76
2022/12/04 07:33:57;;;;;;;1999.90;999.90;;;4.60;99.90;;;;;;5074348;28;20044;-76
2022/12/04 07:36:24;;;;;;;1999.90;999.90;;;4.60;99.90;;;;;;5075152;28;20021;-76
2022/12/04 07:38:50;;;;;;;1999.90;999.90;;;4.60;99.90;;;;;;5074398;28;20056;-75
2022/12/04 07:41:16;;;;;;;1999.90;999.90;;;4.60;99.90;;;;;;5074824;28;20099;-76
2022/12/04 07:43:42;;;;;;;1999.90;999.90;;;4.60;99.90;;;;;;5075251;28;20032;-76
2022/12/04 07:46:18;;;;;;;1999.90;999.90;;;4.50;99.90;;;;;;5094032;28;20020;-76
2022/12/04 07:48:44;;;;;;;1999.90;999.90;;;4.60;99.90;;;;;;5095508;28;20012;-75
2022/12/04 07:51:15;;;;;;;1999.90;999.90;;;4.60;99.90;;;;;;5095427;28;20070;-75
2022/12/04 07:53:42;;;;;;;1999.90;999.90;;;4.60;99.90;;;;;;5095016;28;20039;-75
2022/12/04 07:56:08;;;;;;;1999.90;999.90;;;4.60;99.90;;;;;;5094930;28;20475;-76
2022/12/04 07:58:34;;;;;;;1999.90;999.90;;;4.60;99.90;;;;;;5094124;28;20514;-74
2022/12/04 08:01:08;;;;;;;1999.90;999.90;;;4.60;99.90;;;;;;5095294;28;20024;-76
2022/12/04 08:03:34;;;;;;;1999.90;999.90;;;4.70;99.90;;;;;;5080888;28;20068;-74
2022/12/04 08:06:01;;;;;;;1999.90;999.90;;;4.70;99.90;;;;;;5074877;28;20019;-76
2022/12/04 08:08:27;;;;;;;1999.90;999.90;;;4.60;99.90;;;;;;5074608;28;20434;-76
2022/12/04 08:10:53;;;;;;;1999.90;999.90;;;4.60;99.90;;;;;;5073088;28;20035;-75
2022/12/04 08:13:18;;;;;;;1999.90;999.90;;;4.60;99.90;;;;;;5073050;28;20055;-75
2022/12/04 08:15:44;;;;;;;1999.90;999.90;;;4.70;99.90;;;;;;5073423;28;20058;-76
2022/12/04 08:18:09;;;;;;;1999.90;999.90;;;4.70;99.90;;;;;;5074498;28;20422;-76
2022/12/04 08:20:35;;;;;;;1999.90;999.90;;;4.70;99.90;;;;;;5072942;28;20032;-75
2022/12/04 08:23:01;;;;;;;1999.90;999.90;;;4.70;99.90;;;;;;5074030;28;20039;-74
2022/12/04 08:25:27;;;;;;;1999.90;999.90;;;4.70;99.90;;;;;;5074060;28;20024;-76
2022/12/04 08:27:53;;;;;;;1999.90;999.90;;;4.70;99.90;;;;;;5073436;28;20020;-75
2022/12/04 08:30:18;;;;;;;1999.90;999.90;;;4.80;99.90;;;;;;5070181;28;20372;-76
2022/12/04 08:32:44;;;;;;;1999.90;999.90;;;4.90;99.90;;;;;;5074317;28;20033;-75
2022/12/04 08:35:10;;;;;;;1999.90;999.90;;;4.90;99.90;;;;;;5077396;28;20527;-75
2022/12/04 08:37:35;;;;;;;1999.90;999.90;;;5.00;99.90;;;;;;5072825;28;20438;-75
2022/12/04 08:40:01;;;;;;;1999.90;999.90;;;5.00;99.90;;;;;;5073051;28;20108;-76
2022/12/04 08:42:27;;;;;;;1999.90;999.90;;;5.10;99.90;;;;;;5073905;28;20414;-75
2022/12/04 08:44:52;;;;;;;1999.90;999.90;;;5.10;99.90;;;;;;5082139;28;20525;-76
2022/12/04 08:47:18;;;;;;;1999.90;999.90;;;5.10;99.90;;;;;;5094297;28;20441;-76
2022/12/04 08:49:44;;;;;;;1999.90;999.90;;;5.20;99.90;;;;;;5094493;28;20066;-76
2022/12/04 08:52:10;;;;;;;1999.90;999.90;;;5.20;99.90;;;;;;5094255;28;20468;-74
2022/12/04 08:54:36;;;;;;;1999.90;999.90;;;5.30;99.90;;;;;;5092322;28;20042;-74
2022/12/04 08:57:02;;;;;;;1999.90;999.90;;;5.30;99.90;;;;;;5092698;28;20128;-76
2022/12/04 08:59:27;;;;;;;1999.90;999.90;;;5.40;99.90;;;;;;5094151;28;20016;-76
2022/12/04 09:01:53;;;;;;;1999.90;999.90;;;5.40;99.90;;;;;;5092436;28;20085;-74
2022/12/04 09:04:19;;;;;;;1999.90;999.90;;;5.30;99.90;;;;;;5071557;28;20136;-75
2022/12/04 09:06:44;;;;;;;1999.90;999.90;;;5.30;99.90;;;;;;5073519;28;20060;-75
2022/12/04 09:09:11;;;;;;;1999.90;999.90;;;5.30;99.90;;;;;;5073184;28;20017;-76
2022/12/04 09:11:37;;;;;;;1999.90;999.90;;;5.30;99.90;;;;;;5072195;28;20111;-75
2022/12/04 09:14:03;;;;;;;1999.90;999.90;;;5.50;99.90;;;;;;5073366;28;20107;-76
2022/12/04 09:16:29;;;;;;;1999.90;999.90;;;5.60;99.90;;;;;;5073070;28;20040;-77
2022/12/04 09:18:56;;;;;;;1999.90;999.90;;;5.70;99.90;;;;;;5073026;28;20111;-76
2022/12/04 09:21:23;;;;;;;1999.90;999.90;;;5.70;99.90;;;;;;5073310;28;20025;-75
2022/12/04 09:23:49;;;;;;;1999.90;999.90;;;5.80;99.90;;;;;;5073178;28;20021;-75
2022/12/04 09:26:27;;;;;;;1999.90;999.90;;;5.90;99.90;;;;;;5072237;28;20115;-75
2022/12/04 09:28:54;;;;;;;1999.90;999.90;;;6.00;99.90;;;;;;5068238;28;20431;-76
2022/12/04 09:31:21;;;;;;;1999.90;999.90;;;6.00;99.90;;;;;;5073158;28;20028;-77
2022/12/04 09:33:47;;;;;;;1999.90;999.90;;;6.00;99.90;;;;;;5073171;28;20443;-77
2022/12/04 09:36:15;;;;;;;1999.90;999.90;;;6.10;99.90;;;;;;5078826;28;20041;-76
2022/12/04 09:38:43;;;;;;;1999.90;999.90;;;6.10;99.90;;;;;;5072183;28;20028;-76
2022/12/04 09:41:42;;;;;;;1999.90;999.90;;;6.10;99.90;;;;;;5070912;28;20035;-75
2022/12/04 09:44:26;;;;;;;1999.90;999.90;;;6.10;99.90;;;;;;5073546;28;20025;-77
2022/12/04 09:47:02;;;;;;;1999.90;999.90;;;6.00;99.90;;;;;;5091548;28;20403;-75
2022/12/04 09:49:35;;;;;;;1999.90;999.90;;;6.20;99.90;;;;;;5092026;28;20020;-76
2022/12/04 09:52:02;;;;;;;;;;;6.10;99.90;;;;;;5092145;28;20036;-76
2022/12/04 09:54:39;;;;;;;1999.90;999.90;;;6.20;99.90;;;;;;5092594;28;19954;-76
2022/12/04 09:57:32;;;;;;;1999.90;999.90;;;6.10;99.90;;;;;;5092865;28;20016;-76
2022/12/04 09:59:58;;;;;;;1999.90;999.90;;;6.20;99.90;;;;;;5091461;28;20123;-77
2022/12/04 10:02:31;;;;;;;1999.90;999.90;;;6.20;99.90;;;;;;5089441;28;20025;-77
2022/12/04 10:04:57;;;;;;;1999.90;999.90;;;6.30;99.90;;;;;;5071537;28;20048;-75
2022/12/04 10:07:30;;;;;;;1999.90;999.90;;;6.40;99.90;;;;;;5072612;28;20427;-77
2022/12/04 10:10:04;;;;;;;1999.90;999.90;;;6.30;99.90;;;;;;5072272;28;20039;-75
2022/12/04 10:13:03;;;;;;;1999.90;999.90;;;6.30;99.90;;;;;;5072232;28;20086;-76
2022/12/04 10:15:36;;;;;;;1999.90;999.90;;;6.30;99.90;;;;;;5072693;28;20082;-76
2022/12/04 10:18:36;;;;;;;1999.90;999.90;;;6.30;99.90;;;;;;5071536;28;20515;-75
2022/12/04 10:21:21;;;;;;;1999.90;999.90;;;6.30;99.90;;;;;;5056772;28;20036;-76
2022/12/04 10:24:04;;;;;;;1999.90;999.90;;;6.30;99.90;;;;;;5072641;28;20146;-76
2022/12/04 10:26:38;;;;;;;1999.90;999.90;;;6.40;99.90;;;;;;5071818;28;20029;-77
2022/12/04 10:29:07;;;;;;;1999.90;999.90;;;6.40;99.90;;;;;;5066150;28;20017;-77
2022/12/04 10:31:36;;;;;;;1999.90;999.90;;;6.40;99.90;;;;;;5072532;28;20027;-77
2022/12/04 10:34:13;;;;;;;1999.90;999.90;;;6.40;99.90;;;;;;5072272;28;20035;-75
2022/12/04 10:36:40;;;;;;;1999.90;999.90;;;6.30;99.90;;;;;;5072609;28;20032;-74
2022/12/04 10:39:17;;;;;;;1999.90;999.90;;;6.30;99.90;;;;;;5072377;28;20395;-77
2022/12/04 10:42:00;;;;;;;1999.90;999.90;;;6.30;99.90;;;;;;5071486;28;20399;-77
2022/12/04 10:44:26;;;;;;;1999.90;999.90;;;6.30;99.90;;;;;;5070285;28;20433;-77
2022/12/04 10:46:57;;;;;;;1999.90;999.90;;;6.30;99.90;;;;;;5071957;28;20033;-77
2022/12/04 10:49:36;;;;;;;1999.90;999.90;;;6.30;99.90;;;;;;5072487;28;20032;-76
2022/12/04 10:52:04;;;;;;;1999.90;999.90;;;6.40;99.90;;;;;;5068200;28;20029;-77
2022/12/04 10:54:36;;;;;;;1999.90;999.90;;;6.40;99.90;;;;;;5070204;28;20111;-77
2022/12/04 10:57:07;;;;;;;1999.90;999.90;;;6.40;99.90;;;;;;5071937;28;20028;-77
2022/12/04 10:59:33;;;;;;;1999.90;999.90;;;6.40;99.90;;;;;;5072110;28;20028;-77
2022/12/04 11:02:09;;;;;;;1999.90;999.90;;;6.50;99.90;;;;;;5070459;28;20432;-77
2022/12/04 11:04:35;;;;;;;1999.90;999.90;;;6.50;99.90;;;;;;5051703;28;20049;-75
2022/12/04 11:07:09;;;;;;;1999.90;999.90;;;6.40;99.90;;;;;;5051766;28;20024;-75
2022/12/04 11:09:35;;;;;;;1999.90;999.90;;;6.40;99.90;;;;;;5051976;28;20121;-75
2022/12/04 11:12:16;;;;;;;1999.90;999.90;;;6.50;99.90;;;;;;5053209;28;20052;-77
2022/12/04 11:14:42;;;;;;;1999.90;999.90;;;6.50;99.90;;;;;;5052638;28;20413;-74
2022/12/04 11:17:16;;;;;;;1999.90;999.90;;;6.40;99.90;;;;;;5051598;28;20012;-75
2022/12/04 11:19:42;;;;;;;1999.90;999.90;;;6.40;99.90;;;;;;5050319;28;20032;-77
2022/12/04 11:22:17;;;;;;;1999.90;999.90;;;6.40;99.90;;;;;;5051495;28;20097;-77
2022/12/04 11:24:50;;;;;;;1999.90;999.90;;;6.50;99.90;;;;;;5051166;28;20477;-75
2022/12/04 11:27:30;;;;;;;1999.90;999.90;;;6.40;99.90;;;;;;5049924;28;20021;-74
2022/12/04 11:29:59;;;;;;;1999.90;999.90;;;6.50;99.90;;;;;;5070816;28;20391;-75
2022/12/04 11:32:28;;;;;;;1999.90;999.90;;;6.40;99.90;;;;;;5071721;28;20016;-75
2022/12/04 11:34:59;;;;;;;1999.90;999.90;;;6.50;99.90;;;;;;5075185;28;20048;-77
2022/12/04 11:37:28;;;;;;;1999.90;999.90;;;6.40;99.90;;;;;;5075458;28;20025;-75
2022/12/04 11:39:54;;;;;;;1999.90;999.90;;;6.30;99.90;;;;;;5074812;28;20467;-75
2022/12/04 11:42:26;;;;;;;1999.90;999.90;;;6.40;99.90;;;;;;5074681;28;20032;-75
2022/12/04 11:45:02;;;;;;;1999.90;999.90;;;6.30;99.90;;;;;;5083030;28;20024;-76
2022/12/04 11:47:31;;;;;;;1999.90;999.90;;;6.30;99.90;;;;;;5095346;28;20039;-77
2022/12/04 11:50:25;;;;;;;1999.90;999.90;;;6.30;99.90;;;;;;5094262;28;20020;-75
2022/12/04 11:53:04;;;;;;;1999.90;999.90;;;6.40;99.90;;;;;;5095323;28;20032;-76
2022/12/04 11:55:48;;;;;;;1999.90;999.90;;;6.40;99.90;;;;;;5094992;28;20078;-77
2022/12/04 11:58:28;;;;;;;1999.90;999.90;;;6.40;99.90;;;;;;5095186;28;20024;-74
2022/12/04 12:01:12;;;;;;;1999.90;999.90;;;6.40;99.90;;;;;;5094796;28;20025;-75
2022/12/04 12:03:52;;;;;;;1999.90;999.90;;;6.30;99.90;;;;;;5078010;28;20128;-75
2022/12/04 12:06:47;;;;;;;1999.90;999.90;;;6.30;99.90;;;;;;5073309;28;20033;-77
2022/12/04 12:09:38;;;;;;;1999.90;999.90;;;6.30;99.90;;;;;;5074530;28;20020;-75
2022/12/04 12:12:21;;;;;;;1999.90;999.90;;;6.30;99.90;;;;;;5074582;28;20032;-75
2022/12/04 12:15:01;;;;;;;;;;;6.40;99.90;;;;;;5074861;28;20058;-75
2022/12/04 12:17:55;;;;;;;1999.90;999.90;;;6.50;99.90;;;;;;5073191;28;19904;-75
2022/12/04 12:20:47;;;;;;;1999.90;999.90;;;6.60;99.90;;;;;;5070000;28;20066;-75
2022/12/04 12:23:18;;;;;;;1999.90;999.90;;;6.70;99.90;;;;;;5063220;28;20037;-75
2022/12/04 12:26:08;;;;;;;1999.90;999.90;;;6.70;99.90;;;;;;5074392;28;20020;-76
2022/12/04 12:29:22;;;;;;;1999.90;999.90;;;6.60;99.90;;;;;;5069658;28;20013;-77
2022/12/04 12:32:23;;;;;;;1999.90;999.90;;;6.50;99.90;;;;;;5051324;28;20507;-75
2022/12/04 12:34:49;;;;;;;1999.90;999.90;;;6.50;99.90;;;;;;5042944;28;20067;-75
2022/12/04 12:37:41;;;;;;;1999.90;999.90;;;6.60;99.90;;;;;;5074046;28;20032;-75
2022/12/04 12:40:22;;;;;;;1999.90;999.90;;;6.60;99.90;;;;;;5062307;28;20450;-77